createdAt,value
2023-05-02T00:00:02.785Z,188.85
2023-05-02T00:01:02.656Z,190.17
2023-05-02T00:02:02.774Z,187.97
2023-05-02T00:03:02.936Z,189.54
2023-05-02T00:04:02.986Z,188.24
2023-05-02T00:05:02.931Z,184.15
2023-05-02T00:06:03.021Z,186.42
2023-05-02T00:07:03.093Z,193.04
2023-05-02T00:08:03.140Z,188.64
2023-05-02T00:09:03.201Z,185.35
2023-05-02T00:10:03.390Z,186.45
2023-05-02T00:11:03.361Z,189.66
2023-05-02T00:12:03.433Z,188.00
2023-05-02T00:13:03.505Z,183.91
2023-05-02T00:14:03.617Z,186.22
2023-05-02T00:15:03.667Z,185.87
2023-05-02T00:16:03.768Z,185.17
2023-05-02T00:17:03.893Z,185.78
2023-05-02T00:18:03.967Z,184.17
2023-05-02T00:19:03.989Z,180.11
2023-05-02T00:20:04.070Z,178.52
2023-05-02T00:21:04.322Z,184.87
2023-05-02T00:22:04.207Z,187.28
2023-05-02T00:23:04.267Z,183.76
2023-05-02T00:24:04.338Z,185.30
2023-05-02T00:25:04.417Z,184.03
2023-05-02T00:26:04.499Z,179.40
2023-05-02T00:27:04.617Z,182.19
2023-05-02T00:28:04.686Z,178.62
2023-05-02T00:29:04.744Z,178.61
2023-05-02T00:30:04.773Z,182.10
2023-05-02T00:31:04.930Z,181.74
2023-05-02T00:32:04.932Z,177.69
2023-05-02T00:33:05.047Z,177.45
2023-05-02T00:34:05.103Z,183.29
2023-05-02T00:35:05.171Z,178.47
2023-05-02T00:36:05.240Z,177.03
2023-05-02T00:37:05.323Z,183.44
2023-05-02T00:38:05.397Z,180.86
2023-05-02T00:39:05.497Z,178.05
2023-05-02T00:40:05.570Z,176.47
2023-05-02T00:41:05.670Z,177.10
2023-05-02T00:42:05.733Z,182.65
2023-05-02T00:43:05.828Z,183.43
2023-05-02T00:44:05.890Z,182.06
2023-05-02T00:45:05.990Z,184.22
2023-05-02T00:46:06.111Z,184.05
2023-05-02T00:47:06.159Z,187.17
2023-05-02T00:48:06.285Z,181.31
2023-05-02T00:49:06.306Z,181.17
2023-05-02T00:50:06.396Z,180.00
2023-05-02T00:51:06.495Z,175.70
2023-05-02T00:52:06.560Z,179.63
2023-05-02T00:53:06.755Z,184.56
2023-05-02T00:54:06.719Z,184.48
2023-05-02T00:55:06.813Z,180.78
2023-05-02T00:56:06.892Z,181.78
2023-05-02T00:57:06.987Z,181.67
2023-05-02T00:58:07.041Z,177.40
2023-05-02T00:59:07.121Z,176.85
2023-05-02T01:00:07.168Z,178.77
2023-05-02T01:01:07.339Z,181.49
2023-05-02T01:02:07.504Z,177.97
2023-05-02T01:03:07.493Z,175.59
2023-05-02T01:04:07.564Z,180.79
2023-05-02T01:05:07.566Z,185.74
2023-05-02T01:06:07.680Z,182.21
2023-05-02T01:07:07.683Z,184.04
2023-05-02T01:08:07.764Z,183.82
2023-05-02T01:09:07.833Z,188.06
2023-05-02T01:10:07.915Z,187.07
2023-05-02T01:11:07.993Z,184.29
2023-05-02T01:12:08.048Z,186.54
2023-05-02T01:13:08.116Z,185.91
2023-05-02T01:14:08.183Z,182.78
2023-05-02T01:15:08.245Z,180.78
2023-05-02T01:16:08.351Z,184.91
2023-05-02T01:17:08.384Z,184.50
2023-05-02T01:18:08.500Z,184.07
2023-05-02T01:19:08.502Z,191.51
2023-05-02T01:20:08.572Z,183.92
2023-05-02T01:21:08.647Z,184.89
2023-05-02T01:22:08.713Z,184.49
2023-05-02T01:23:08.783Z,188.87
2023-05-02T01:24:08.847Z,186.18
2023-05-02T01:25:08.979Z,182.12
2023-05-02T01:26:08.996Z,184.52
2023-05-02T01:27:09.060Z,187.91
2023-05-02T01:28:09.116Z,187.91
2023-05-02T01:29:09.187Z,190.32
2023-05-02T01:30:09.266Z,187.28
2023-05-02T01:31:09.374Z,188.96
2023-05-02T01:32:09.478Z,187.10
2023-05-02T01:33:09.498Z,190.52
2023-05-02T01:34:09.535Z,186.38
2023-05-02T01:35:09.608Z,180.50
2023-05-02T01:36:09.677Z,177.19
2023-05-02T01:37:09.757Z,179.22
2023-05-02T01:38:09.811Z,178.82
2023-05-02T01:39:09.880Z,176.93
2023-05-02T01:40:09.953Z,180.64
2023-05-02T01:41:10.039Z,185.31
2023-05-02T01:42:10.081Z,178.24
2023-05-02T01:43:10.167Z,182.41
2023-05-02T01:44:10.234Z,184.36
2023-05-02T01:45:10.305Z,190.01
2023-05-02T01:46:10.387Z,186.81
2023-05-02T01:47:10.502Z,185.72
2023-05-02T01:48:10.642Z,187.19
2023-05-02T01:49:10.626Z,186.67
2023-05-02T01:50:10.700Z,187.61
2023-05-02T01:51:10.804Z,184.26
2023-05-02T01:52:10.861Z,185.15
2023-05-02T01:53:10.958Z,182.27
2023-05-02T01:54:11.057Z,179.82
2023-05-02T01:55:11.147Z,185.72
2023-05-02T01:56:11.234Z,190.61
2023-05-02T01:57:11.316Z,186.90
2023-05-02T01:58:11.398Z,189.35
2023-05-02T01:59:11.474Z,191.94
2023-05-02T02:00:11.683Z,189.87
2023-05-02T02:01:11.742Z,191.90
2023-05-02T02:02:11.751Z,186.46
2023-05-02T02:03:11.853Z,187.65
2023-05-02T02:04:11.957Z,186.77
2023-05-02T02:05:12.008Z,190.16
2023-05-02T02:06:12.135Z,187.39
2023-05-02T02:07:12.186Z,189.60
2023-05-02T02:08:12.299Z,186.29
2023-05-02T02:09:12.389Z,185.86
2023-05-02T02:10:12.456Z,190.58
2023-05-02T02:11:12.583Z,186.68
2023-05-02T02:12:12.650Z,186.88
2023-05-02T02:13:12.810Z,181.33
2023-05-02T02:14:12.899Z,186.87
2023-05-02T02:15:12.907Z,187.01
2023-05-02T02:16:13.062Z,186.33
2023-05-02T02:17:13.096Z,186.46
2023-05-02T02:18:13.369Z,187.31
2023-05-02T02:19:13.238Z,188.96
2023-05-02T02:20:13.176Z,189.73
2023-05-02T02:21:13.187Z,190.56
2023-05-02T02:22:13.354Z,181.99
2023-05-02T02:23:13.226Z,186.24
2023-05-02T02:24:13.265Z,188.63
2023-05-02T02:25:13.325Z,190.17
2023-05-02T02:26:13.334Z,186.84
2023-05-02T02:27:13.375Z,193.87
2023-05-02T02:28:13.424Z,192.00
2023-05-02T02:29:13.515Z,184.22
2023-05-02T02:30:13.603Z,189.86
2023-05-02T02:31:13.755Z,189.81
2023-05-02T02:32:13.786Z,190.56
2023-05-02T02:33:13.900Z,189.76
2023-05-02T02:34:13.970Z,188.08
2023-05-02T02:35:14.064Z,184.15
2023-05-02T02:36:14.144Z,181.27
2023-05-02T02:37:14.221Z,186.97
2023-05-02T02:38:14.326Z,184.43
2023-05-02T02:39:14.401Z,183.25
2023-05-02T02:40:14.496Z,190.00
2023-05-02T02:41:14.587Z,187.36
2023-05-02T02:42:14.602Z,187.43
2023-05-02T02:43:14.636Z,187.49
2023-05-02T02:44:14.682Z,187.52
2023-05-02T02:45:14.741Z,181.09
2023-05-02T02:46:14.771Z,184.09
2023-05-02T02:47:14.764Z,187.27
2023-05-02T02:48:14.826Z,188.82
2023-05-02T02:49:14.828Z,187.52
2023-05-02T02:50:14.870Z,186.34
2023-05-02T02:51:14.905Z,186.17
2023-05-02T02:52:14.924Z,183.66
2023-05-02T02:53:14.958Z,185.43
2023-05-02T02:54:25.749Z,185.01
2023-05-02T02:55:16.037Z,185.26
2023-05-02T02:56:15.066Z,185.78
2023-05-02T02:57:15.087Z,185.95
2023-05-02T02:58:15.124Z,187.00
2023-05-02T02:59:15.158Z,182.52
2023-05-02T03:00:15.197Z,188.30
2023-05-02T03:01:15.368Z,189.78
2023-05-02T03:02:15.286Z,190.23
2023-05-02T03:03:15.494Z,191.34
2023-05-02T03:04:15.411Z,188.27
2023-05-02T03:05:15.356Z,189.24
2023-05-02T03:06:15.418Z,179.87
2023-05-02T03:07:15.473Z,177.63
2023-05-02T03:08:15.623Z,179.87
2023-05-02T03:09:15.664Z,187.32
2023-05-02T03:10:15.734Z,178.57
2023-05-02T03:11:15.834Z,177.92
2023-05-02T03:12:15.919Z,184.20
2023-05-02T03:13:15.986Z,184.86
2023-05-02T03:14:16.075Z,185.24
2023-05-02T03:15:16.099Z,185.39
2023-05-02T03:16:16.148Z,185.50
2023-05-02T03:17:16.160Z,186.40
2023-05-02T03:18:16.231Z,185.57
2023-05-02T03:19:16.229Z,186.06
2023-05-02T03:20:16.252Z,183.00
2023-05-02T03:21:16.267Z,180.66
2023-05-02T03:22:16.308Z,182.57
2023-05-02T03:23:16.326Z,180.38
2023-05-02T03:24:18.887Z,180.56
2023-05-02T03:25:16.380Z,179.91
2023-05-02T03:26:16.425Z,187.74
2023-05-02T03:27:16.453Z,187.09
2023-05-02T03:28:16.497Z,183.92
2023-05-02T03:29:16.547Z,184.22
2023-05-02T03:30:16.553Z,184.37
2023-05-02T03:31:16.586Z,185.99
2023-05-02T03:32:16.613Z,183.40
2023-05-02T03:33:16.765Z,183.80
2023-05-02T03:34:16.670Z,184.26
2023-05-02T03:35:16.700Z,184.39
2023-05-02T03:36:16.740Z,184.75
2023-05-02T03:37:16.772Z,187.96
2023-05-02T03:38:16.786Z,189.47
2023-05-02T03:39:16.817Z,191.61
2023-05-02T03:40:16.869Z,187.82
2023-05-02T03:41:16.872Z,187.97
2023-05-02T03:42:17.053Z,189.33
2023-05-02T03:43:17.046Z,187.81
2023-05-02T03:44:17.125Z,188.08
2023-05-02T03:45:17.157Z,189.75
2023-05-02T03:46:17.255Z,191.23
2023-05-02T03:47:17.326Z,188.16
2023-05-02T03:48:17.432Z,189.24
2023-05-02T03:49:17.528Z,189.98
2023-05-02T03:50:17.605Z,186.39
2023-05-02T03:51:17.726Z,188.82
2023-05-02T03:52:17.736Z,176.34
2023-05-02T03:53:17.881Z,175.30
2023-05-02T03:54:17.945Z,171.15
2023-05-02T03:55:18.024Z,166.83
2023-05-02T03:56:18.096Z,175.13
2023-05-02T03:57:18.332Z,177.84
2023-05-02T03:58:18.250Z,180.06
2023-05-02T03:59:18.367Z,182.33
2023-05-02T04:00:18.491Z,184.28
2023-05-02T04:01:18.482Z,183.74
2023-05-02T04:02:18.671Z,180.41
2023-05-02T04:03:18.702Z,185.27
2023-05-02T04:04:18.804Z,187.89
2023-05-02T04:05:18.857Z,188.07
2023-05-02T04:06:18.966Z,187.30
2023-05-02T04:07:18.824Z,186.38
2023-05-02T04:08:18.859Z,189.07
2023-05-02T04:09:18.896Z,183.03
2023-05-02T04:10:18.988Z,183.68
2023-05-02T04:11:18.981Z,182.68
2023-05-02T04:12:18.974Z,183.30
2023-05-02T04:13:18.971Z,180.70
2023-05-02T04:14:19.008Z,185.62
2023-05-02T04:15:19.024Z,185.67
2023-05-02T04:16:19.082Z,179.26
2023-05-02T04:17:19.139Z,182.45
2023-05-02T04:18:19.114Z,182.65
2023-05-02T04:19:19.151Z,180.77
2023-05-02T04:20:19.185Z,184.99
2023-05-02T04:21:19.205Z,186.74
2023-05-02T04:22:19.276Z,186.87
2023-05-02T04:23:19.346Z,185.53
2023-05-02T04:24:19.334Z,186.24
2023-05-02T04:25:19.354Z,186.99
2023-05-02T04:26:19.426Z,182.59
2023-05-02T04:27:19.505Z,182.43
2023-05-02T04:28:19.594Z,179.36
2023-05-02T04:29:19.677Z,183.06
2023-05-02T04:30:19.778Z,182.44
2023-05-02T04:31:19.879Z,178.06
2023-05-02T04:32:19.818Z,180.32
2023-05-02T04:33:19.859Z,182.62
2023-05-02T04:34:19.879Z,182.77
2023-05-02T04:35:19.906Z,182.67
2023-05-02T04:36:19.950Z,184.39
2023-05-02T04:37:21.090Z,179.18
2023-05-02T04:38:20.042Z,180.90
2023-05-02T04:39:20.055Z,181.71
2023-05-02T04:40:20.066Z,187.34
2023-05-02T04:41:20.109Z,182.62
2023-05-02T04:42:20.146Z,184.03
2023-05-02T04:43:20.804Z,182.17
2023-05-02T04:44:20.208Z,182.74
2023-05-02T04:45:20.281Z,184.80
2023-05-02T04:46:20.414Z,182.66
2023-05-02T04:47:20.561Z,180.91
2023-05-02T04:48:20.531Z,185.56
2023-05-02T04:49:20.625Z,179.63
2023-05-02T04:50:20.700Z,181.18
2023-05-02T04:51:20.742Z,181.22
2023-05-02T04:52:20.789Z,181.61
2023-05-02T04:53:20.781Z,181.40
2023-05-02T04:54:20.824Z,181.47
2023-05-02T04:55:20.859Z,182.19
2023-05-02T04:56:20.877Z,180.97
2023-05-02T04:57:23.128Z,181.07
2023-05-02T04:58:20.932Z,178.31
2023-05-02T04:59:20.996Z,176.53
2023-05-02T05:00:21.073Z,175.91
2023-05-02T05:01:21.176Z,176.26
2023-05-02T05:02:21.279Z,178.38
2023-05-02T05:03:21.426Z,178.22
2023-05-02T05:04:21.729Z,180.03
2023-05-02T05:05:21.510Z,176.61
2023-05-02T05:06:21.588Z,172.26
2023-05-02T05:07:21.621Z,179.15
2023-05-02T05:08:21.710Z,174.15
2023-05-02T05:09:21.766Z,178.19
2023-05-02T05:10:21.830Z,183.31
2023-05-02T05:11:21.866Z,183.41
2023-05-02T05:12:21.902Z,177.03
2023-05-02T05:13:21.929Z,178.70
2023-05-02T05:14:21.975Z,169.57
2023-05-02T05:15:22.038Z,162.28
2023-05-02T05:16:22.035Z,174.76
2023-05-02T05:17:22.218Z,167.38
2023-05-02T05:18:22.071Z,169.57
2023-05-02T05:19:22.088Z,168.57
2023-05-02T05:20:22.120Z,164.39
2023-05-02T05:21:22.151Z,165.41
2023-05-02T05:22:22.202Z,166.97
2023-05-02T05:23:22.196Z,168.56
2023-05-02T05:24:22.227Z,171.74
2023-05-02T05:25:22.284Z,174.12
2023-05-02T05:26:22.300Z,174.18
2023-05-02T05:27:22.302Z,175.12
2023-05-02T05:28:22.339Z,178.00
2023-05-02T05:29:22.381Z,173.49
2023-05-02T05:30:22.412Z,174.76
2023-05-02T05:31:22.472Z,179.27
2023-05-02T05:32:22.926Z,179.45
2023-05-02T05:33:22.715Z,179.90
2023-05-02T05:34:22.507Z,176.80
2023-05-02T05:35:22.572Z,179.43
2023-05-02T05:36:23.754Z,182.21
2023-05-02T05:37:22.619Z,188.51
2023-05-02T05:38:22.655Z,205.64
2023-05-02T05:39:22.707Z,231.06
2023-05-02T05:40:22.757Z,245.69
2023-05-02T05:41:22.734Z,250.00
2023-05-02T05:42:22.797Z,251.60
2023-05-02T05:43:22.805Z,249.94
2023-05-02T05:44:22.832Z,250.00
2023-05-02T05:45:22.882Z,250.00
2023-05-02T05:46:23.031Z,250.00
2023-05-02T05:47:23.038Z,249.59
2023-05-02T05:48:22.986Z,249.13
2023-05-02T05:49:22.997Z,255.99
2023-05-02T05:50:23.014Z,251.30
2023-05-02T05:51:23.105Z,247.77
2023-05-02T05:52:23.154Z,247.86
2023-05-02T05:53:23.135Z,247.99
2023-05-02T05:54:23.155Z,249.23
2023-05-02T05:55:23.199Z,250.17
2023-05-02T05:56:23.319Z,251.03
2023-05-02T05:57:23.279Z,248.74
2023-05-02T05:58:23.270Z,249.74
2023-05-02T05:59:23.305Z,249.46
2023-05-02T06:00:23.326Z,247.98
2023-05-02T06:01:23.589Z,249.48
2023-05-02T06:02:23.642Z,247.02
2023-05-02T06:03:23.737Z,241.90
2023-05-02T06:04:23.471Z,241.74
2023-05-02T06:05:23.466Z,241.96
2023-05-02T06:06:23.552Z,244.37
2023-05-02T06:07:23.576Z,244.51
2023-05-02T06:08:23.616Z,244.47
2023-05-02T06:09:23.598Z,240.70
2023-05-02T06:10:23.617Z,235.73
2023-05-02T06:11:23.639Z,237.66
2023-05-02T06:12:23.711Z,238.80
2023-05-02T06:13:23.711Z,239.15
2023-05-02T06:14:23.754Z,237.06
2023-05-02T06:15:23.797Z,235.33
2023-05-02T06:16:23.866Z,234.09
2023-05-02T06:17:23.976Z,234.01
2023-05-02T06:18:23.853Z,233.03
2023-05-02T06:19:23.904Z,232.98
2023-05-02T06:20:23.962Z,232.54
2023-05-02T06:21:23.952Z,227.54
2023-05-02T06:22:24.009Z,229.67
2023-05-02T06:23:24.038Z,229.16
2023-05-02T06:24:24.051Z,225.63
2023-05-02T06:25:24.113Z,225.30
2023-05-02T06:26:24.124Z,224.24
2023-05-02T06:27:24.171Z,226.24
2023-05-02T06:28:24.229Z,226.20
2023-05-02T06:29:24.262Z,226.38
2023-05-02T06:30:24.319Z,223.73
2023-05-02T06:31:24.424Z,223.21
2023-05-02T06:32:24.631Z,223.00
2023-05-02T06:33:24.505Z,222.05
2023-05-02T06:34:24.523Z,222.19
2023-05-02T06:35:24.551Z,222.55
2023-05-02T06:36:24.584Z,221.70
2023-05-02T06:37:24.730Z,222.22
2023-05-02T06:38:24.651Z,221.15
2023-05-02T06:39:24.687Z,220.61
2023-05-02T06:40:24.714Z,217.25
2023-05-02T06:41:24.766Z,218.93
2023-05-02T06:42:24.826Z,218.58
2023-05-02T06:43:24.821Z,220.66
2023-05-02T06:44:24.848Z,225.83
2023-05-02T06:45:24.889Z,226.72
2023-05-02T06:46:24.987Z,233.40
2023-05-02T06:47:25.014Z,235.27
2023-05-02T06:48:24.980Z,236.52
2023-05-02T06:49:25.001Z,252.14
2023-05-02T06:50:25.110Z,252.51
2023-05-02T06:51:25.071Z,253.39
2023-05-02T06:52:25.106Z,252.82
2023-05-02T06:53:25.126Z,250.04
2023-05-02T06:54:25.118Z,252.28
2023-05-02T06:55:25.191Z,252.52
2023-05-02T06:56:25.156Z,253.69
2023-05-02T06:57:25.194Z,252.49
2023-05-02T06:58:25.212Z,254.30
2023-05-02T06:59:25.252Z,258.06
2023-05-02T07:00:25.256Z,264.15
2023-05-02T07:01:25.364Z,277.04
2023-05-02T07:02:25.349Z,258.57
2023-05-02T07:03:25.303Z,249.31
2023-05-02T07:04:26.262Z,249.58
2023-05-02T07:05:25.340Z,251.20
2023-05-02T07:06:25.446Z,255.00
2023-05-02T07:07:25.388Z,264.26
2023-05-02T07:08:25.416Z,273.92
2023-05-02T07:09:25.493Z,257.83
2023-05-02T07:10:25.467Z,253.43
2023-05-02T07:11:25.513Z,253.57
2023-05-02T07:12:25.558Z,253.86
2023-05-02T07:13:25.650Z,255.46
2023-05-02T07:14:25.601Z,256.34
2023-05-02T07:15:25.630Z,259.05
2023-05-02T07:16:26.111Z,250.00
2023-05-02T07:17:25.662Z,250.00
2023-05-02T07:18:25.777Z,249.30
2023-05-02T07:19:25.661Z,246.86
2023-05-02T07:20:25.817Z,247.05
2023-05-02T07:21:25.793Z,249.29
2023-05-02T07:22:25.894Z,247.33
2023-05-02T07:23:25.946Z,249.50
2023-05-02T07:24:26.925Z,248.84
2023-05-02T07:25:26.051Z,250.00
2023-05-02T07:26:26.117Z,250.32
2023-05-02T07:27:26.188Z,247.64
2023-05-02T07:28:26.238Z,243.46
2023-05-02T07:29:26.330Z,247.94
2023-05-02T07:30:26.326Z,250.00
2023-05-02T07:31:26.468Z,248.74
2023-05-02T07:32:27.726Z,247.76
2023-05-02T07:33:27.039Z,249.95
2023-05-02T07:34:26.738Z,248.93
2023-05-02T07:35:26.662Z,249.15
2023-05-02T07:36:26.697Z,250.10
2023-05-02T07:37:26.942Z,247.64
2023-05-02T07:38:26.881Z,243.59
2023-05-02T07:39:26.896Z,248.34
2023-05-02T07:40:26.967Z,250.00
2023-05-02T07:41:27.046Z,249.57
2023-05-02T07:42:27.071Z,245.63
2023-05-02T07:43:27.138Z,247.72
2023-05-02T07:44:27.221Z,246.98
2023-05-02T07:45:27.212Z,248.72
2023-05-02T07:46:27.421Z,125.07
2023-05-02T07:47:27.421Z,43.40
2023-05-02T07:48:27.905Z,30.29
2023-05-02T07:49:27.672Z,10.69
2023-05-02T07:50:27.728Z,22.51
2023-05-02T07:51:27.862Z,8.32
2023-05-02T07:52:27.978Z,7.21
2023-05-02T07:53:28.014Z,0.00
2023-05-02T07:54:28.112Z,0.00
2023-05-02T07:55:28.136Z,0.00
2023-05-02T07:56:28.200Z,0.00
2023-05-02T07:57:28.265Z,0.00
2023-05-02T07:58:28.334Z,0.00
2023-05-02T07:59:28.399Z,0.00
2023-05-02T08:00:28.492Z,0.00
2023-05-02T08:01:28.554Z,0.00
2023-05-02T08:02:28.693Z,0.00
2023-05-02T08:03:28.951Z,0.00
2023-05-02T08:04:28.909Z,0.00
2023-05-02T08:05:28.927Z,0.00
2023-05-02T08:06:29.099Z,0.00
2023-05-02T08:07:29.309Z,3.92
2023-05-02T08:08:29.439Z,12.92
2023-05-02T08:09:29.615Z,9.16
2023-05-02T08:10:29.479Z,8.98
2023-05-02T08:11:29.490Z,13.83
2023-05-02T08:12:29.619Z,12.90
2023-05-02T08:13:29.685Z,15.25
2023-05-02T08:14:29.760Z,15.60
2023-05-02T08:15:29.718Z,24.11
2023-05-02T08:16:30.015Z,27.82
2023-05-02T08:17:29.913Z,27.58
2023-05-02T08:18:29.903Z,29.51
2023-05-02T08:19:29.998Z,26.17
2023-05-02T08:20:30.073Z,26.14
2023-05-02T08:21:30.185Z,28.46
2023-05-02T08:22:30.986Z,25.45
2023-05-02T08:23:30.941Z,27.33
2023-05-02T08:24:30.490Z,24.58
2023-05-02T08:25:30.570Z,31.84
2023-05-02T08:26:31.452Z,29.49
2023-05-02T08:27:30.771Z,27.74
2023-05-02T08:28:30.892Z,27.18
2023-05-02T08:29:30.979Z,25.29
2023-05-02T08:30:31.118Z,32.47
2023-05-02T08:31:31.306Z,34.58
2023-05-02T08:32:35.257Z,30.07
2023-05-02T08:33:31.484Z,30.22
2023-05-02T08:34:31.448Z,30.81
2023-05-02T08:35:31.469Z,33.53
2023-05-02T08:36:31.547Z,38.65
2023-05-02T08:37:31.611Z,36.62
2023-05-02T08:38:31.686Z,30.63
2023-05-02T08:39:31.746Z,26.35
2023-05-02T08:40:41.523Z,27.08
2023-05-02T08:41:32.909Z,27.11
2023-05-02T08:42:31.996Z,29.24
2023-05-02T08:43:32.161Z,32.84
2023-05-02T08:44:32.157Z,31.09
2023-05-02T08:45:32.229Z,37.34
2023-05-02T08:46:32.384Z,55.78
2023-05-02T08:47:32.440Z,70.89
2023-05-02T08:48:32.509Z,84.12
2023-05-02T08:49:32.580Z,93.28
2023-05-02T08:50:32.616Z,93.61
2023-05-02T08:51:32.716Z,95.82
2023-05-02T08:52:32.711Z,101.73
2023-05-02T08:53:32.792Z,112.37
2023-05-02T08:54:32.821Z,129.71
2023-05-02T08:55:32.917Z,136.49
2023-05-02T08:56:32.918Z,139.91
2023-05-02T08:57:32.991Z,185.64
2023-05-02T08:58:33.015Z,181.06
2023-05-02T09:00:52.053Z,25.00
2023-05-02T09:01:52.010Z,25.00
2023-05-02T09:02:52.022Z,25.00
2023-05-02T09:03:51.970Z,25.00
2023-05-02T09:04:51.934Z,25.00
2023-05-02T09:05:51.888Z,38.82
2023-05-02T09:06:51.942Z,54.62
2023-05-02T09:07:51.862Z,67.07
2023-05-02T09:08:51.832Z,87.11
2023-05-02T09:09:51.887Z,106.73
2023-05-02T09:10:51.762Z,117.13
2023-05-02T09:11:51.756Z,138.08
2023-05-02T09:12:51.762Z,144.79
2023-05-02T09:13:51.873Z,153.71
2023-05-02T09:14:51.685Z,160.89
2023-05-02T09:15:51.634Z,174.75
2023-05-02T09:16:51.601Z,189.48
2023-05-02T09:17:51.681Z,193.66
2023-05-02T09:18:51.565Z,192.26
2023-05-02T09:19:51.629Z,207.80
2023-05-02T09:20:51.495Z,218.94
2023-05-02T09:21:51.466Z,222.87
2023-05-02T09:22:51.553Z,231.45
2023-05-02T09:23:51.370Z,231.32
2023-05-02T09:24:51.360Z,246.35
2023-05-02T09:25:51.310Z,244.40
2023-05-02T09:26:51.257Z,249.58
2023-05-02T09:27:51.236Z,248.18
2023-05-02T09:28:51.202Z,248.86
2023-05-02T09:29:51.161Z,249.39
2023-05-02T09:30:51.738Z,246.40
2023-05-02T09:31:56.006Z,250.10
2023-05-02T09:32:52.082Z,250.43
2023-05-02T09:33:51.080Z,251.47
2023-05-02T09:34:50.990Z,252.85
2023-05-02T09:35:50.964Z,261.85
2023-05-02T09:36:50.934Z,261.99
2023-05-02T09:37:50.910Z,250.00
2023-05-02T09:38:50.868Z,249.04
2023-05-02T09:39:50.831Z,249.90
2023-05-02T09:40:50.798Z,250.00
2023-05-02T09:41:50.772Z,249.60
2023-05-02T09:42:50.825Z,248.16
2023-05-02T09:43:50.682Z,249.18
2023-05-02T09:44:51.189Z,241.49
2023-05-02T09:45:50.689Z,223.36
2023-05-02T09:46:50.685Z,212.60
2023-05-02T09:47:50.698Z,200.02
2023-05-02T09:48:50.748Z,183.43
2023-05-02T09:49:50.679Z,181.32
2023-05-02T09:50:50.636Z,176.79
2023-05-02T09:51:50.977Z,163.54
2023-05-02T09:52:50.657Z,150.55
2023-05-02T09:53:50.634Z,134.36
2023-05-02T09:54:50.684Z,122.80
2023-05-02T09:55:50.615Z,113.85
2023-05-02T09:56:50.737Z,104.81
2023-05-02T09:57:50.650Z,96.06
2023-05-02T09:58:50.636Z,89.53
2023-05-02T09:59:51.185Z,90.61
2023-05-02T10:00:51.220Z,78.29
2023-05-02T10:01:50.695Z,70.39
2023-05-02T10:02:50.738Z,63.98
2023-05-02T10:03:50.791Z,59.40
2023-05-02T10:04:50.834Z,50.77
2023-05-02T10:05:50.708Z,50.21
2023-05-02T10:06:50.801Z,50.29
2023-05-02T10:07:50.736Z,47.47
2023-05-02T10:08:50.762Z,45.94
2023-05-02T10:09:51.002Z,47.13
2023-05-02T10:10:51.716Z,42.75
2023-05-02T10:11:50.779Z,39.94
2023-05-02T10:12:50.832Z,43.22
2023-05-02T10:13:51.722Z,45.23
2023-05-02T10:14:50.850Z,47.83
2023-05-02T10:15:51.075Z,43.98
2023-05-02T10:16:51.047Z,39.70
2023-05-02T10:17:51.116Z,32.79
2023-05-02T10:18:51.117Z,36.90
2023-05-02T10:19:50.897Z,46.79
2023-05-02T10:20:51.098Z,60.80
2023-05-02T10:21:50.906Z,78.99
2023-05-02T10:22:51.165Z,77.30
2023-05-02T10:23:50.991Z,79.20
2023-05-02T10:24:50.971Z,81.18
2023-05-02T10:25:51.171Z,85.61
2023-05-02T10:26:51.092Z,84.17
2023-05-02T10:27:51.004Z,73.27
2023-05-02T10:28:51.365Z,63.89
2023-05-02T10:29:50.913Z,63.33
2023-05-02T10:30:50.888Z,61.48
2023-05-02T10:31:50.844Z,63.74
2023-05-02T10:32:50.832Z,63.56
2023-05-02T10:33:50.778Z,61.24
2023-05-02T10:34:50.716Z,63.91
2023-05-02T10:35:50.696Z,64.13
2023-05-02T10:36:50.662Z,61.10
2023-05-02T10:37:50.619Z,62.51
2023-05-02T10:38:50.716Z,61.04
2023-05-02T10:39:50.527Z,53.82
2023-05-02T10:40:50.819Z,54.22
2023-05-02T10:41:50.451Z,60.73
2023-05-02T10:42:50.414Z,60.39
2023-05-02T10:43:50.380Z,59.95
2023-05-02T10:44:50.341Z,57.76
2023-05-02T10:45:50.291Z,53.19
2023-05-02T10:46:50.285Z,55.66
2023-05-02T10:47:50.294Z,53.53
2023-05-02T10:48:50.186Z,51.78
2023-05-02T10:49:50.123Z,50.99
2023-05-02T10:50:50.092Z,49.06
2023-05-02T10:51:50.055Z,48.51
2023-05-02T10:52:50.031Z,51.53
2023-05-02T10:53:49.997Z,48.83
2023-05-02T10:54:49.922Z,43.82
2023-05-02T10:55:49.895Z,44.25
2023-05-02T10:56:49.868Z,47.44
2023-05-02T10:57:49.831Z,47.07
2023-05-02T10:58:50.131Z,47.73
2023-05-02T10:59:49.726Z,48.75
2023-05-02T11:00:49.713Z,39.57
2023-05-02T11:01:49.673Z,39.24
2023-05-02T11:02:49.686Z,43.68
2023-05-02T11:03:49.628Z,43.91
2023-05-02T11:04:49.500Z,47.19
2023-05-02T11:05:49.501Z,41.43
2023-05-02T11:06:49.499Z,45.73
2023-05-02T11:07:49.370Z,46.57
2023-05-02T11:08:49.336Z,48.36
2023-05-02T11:09:49.561Z,43.26
2023-05-02T11:10:49.266Z,40.38
2023-05-02T11:11:49.206Z,31.31
2023-05-02T11:12:49.257Z,31.23
2023-05-02T11:13:49.141Z,30.60
2023-05-02T11:14:49.144Z,34.01
2023-05-02T11:15:49.039Z,33.31
2023-05-02T11:16:49.034Z,34.83
2023-05-02T11:17:49.044Z,33.99
2023-05-02T11:18:48.939Z,35.48
2023-05-02T11:19:48.877Z,34.28
2023-05-02T11:20:48.908Z,36.99
2023-05-02T11:21:48.796Z,35.93
2023-05-02T11:22:48.751Z,30.81
2023-05-02T11:23:48.712Z,29.20
2023-05-02T11:24:48.694Z,34.43
2023-05-02T11:25:48.654Z,33.30
2023-05-02T11:26:48.611Z,33.80
2023-05-02T11:27:48.552Z,31.71
2023-05-02T11:28:48.715Z,26.87
2023-05-02T11:29:48.577Z,28.94
2023-05-02T11:30:48.616Z,28.60
2023-05-02T11:31:48.590Z,31.89
2023-05-02T11:32:48.724Z,31.17
2023-05-02T11:33:48.554Z,31.82
2023-05-02T11:34:48.564Z,31.63
2023-05-02T11:35:48.586Z,35.59
2023-05-02T11:36:48.663Z,34.47
2023-05-02T11:37:48.635Z,31.45
2023-05-02T11:38:48.636Z,33.62
2023-05-02T11:39:48.642Z,36.54
2023-05-02T11:40:48.641Z,32.29
2023-05-02T11:41:48.670Z,29.20
2023-05-02T11:42:48.720Z,30.51
2023-05-02T11:43:48.708Z,30.02
2023-05-02T11:44:48.712Z,30.58
2023-05-02T11:45:48.736Z,28.94
2023-05-02T11:46:48.877Z,26.94
2023-05-02T11:47:48.791Z,25.00
2023-05-02T11:48:48.776Z,29.20
2023-05-02T11:49:48.791Z,32.00
2023-05-02T11:50:50.486Z,25.00
2023-05-02T11:51:48.826Z,28.28
2023-05-02T11:52:48.829Z,31.50
2023-05-02T11:53:48.854Z,26.16
2023-05-02T11:54:48.864Z,27.25
2023-05-02T11:55:48.869Z,28.09
2023-05-02T11:56:48.899Z,27.43
2023-05-02T11:57:48.891Z,26.44
2023-05-02T11:58:48.904Z,28.76
2023-05-02T11:59:48.911Z,29.34
2023-05-02T12:00:48.923Z,29.32
2023-05-02T12:01:48.943Z,26.60
2023-05-02T12:02:49.127Z,26.73
2023-05-02T12:03:49.098Z,25.69
2023-05-02T12:04:48.967Z,25.00
2023-05-02T12:05:49.008Z,25.00
2023-05-02T12:06:49.057Z,28.21
2023-05-02T12:07:49.015Z,26.59
2023-05-02T12:08:49.038Z,25.00
2023-05-02T12:09:49.030Z,27.50
2023-05-02T12:10:49.029Z,27.90
2023-05-02T12:11:49.029Z,33.26
2023-05-02T12:12:49.067Z,29.60
2023-05-02T12:13:49.091Z,29.98
2023-05-02T12:14:49.071Z,26.10
2023-05-02T12:15:49.094Z,26.59
2023-05-02T12:16:49.169Z,30.85
2023-05-02T12:17:49.182Z,27.54
2023-05-02T12:18:49.116Z,27.87
2023-05-02T12:19:49.127Z,26.49
2023-05-02T12:20:49.168Z,31.08
2023-05-02T12:21:49.199Z,29.87
2023-05-02T12:22:49.226Z,29.85
2023-05-02T12:23:49.172Z,29.45
2023-05-02T12:24:49.222Z,29.90
2023-05-02T12:25:49.194Z,30.35
2023-05-02T12:26:50.148Z,30.92
2023-05-02T12:27:49.215Z,29.85
2023-05-02T12:28:49.303Z,27.12
2023-05-02T12:29:49.268Z,25.34
2023-05-02T12:30:49.268Z,27.55
2023-05-02T12:31:49.339Z,28.11
2023-05-02T12:32:49.312Z,26.87
2023-05-02T12:33:49.275Z,26.78
2023-05-02T12:34:49.316Z,25.42
2023-05-02T12:35:49.305Z,27.66
2023-05-02T12:36:49.324Z,29.47
2023-05-02T12:37:49.312Z,30.08